Home > Products > Valid Products > TAF

000
FTUS45 KCYS 041142
TAFLAR
TAF
KLAR 041142Z 0412/0512 31006KT P6SM SCT050 BKN080
     FM041700 30010KT P6SM FEW200
     FM050500 24009KT P6SM SCT200=



000
FTUS45 KCYS 041142
TAFRWL
TAF
KRWL 041142Z 0412/0512 29005KT P6SM SCT100
     FM041700 27010KT P6SM FEW200
     FM042000 27013G20KT P6SM SCT200
     FM050100 26010KT P6SM SCT250=



000
FTUS45 KCYS 041142
TAFCYS
TAF
KCYS 041142Z 0412/0512 32007KT P6SM SCT050 BKN120
     FM041600 31011KT P6SM FEW200
     FM050500 27011KT P6SM SCT250=



000
FTUS45 KCYS 041142
TAFCYS
TAF
KCYS 041142Z 0412/0512 32007KT P6SM SCT050 BKN120
     FM041600 31011KT P6SM FEW200
     FM050500 27011KT P6SM SCT250=



000
FTUS45 KCYS 041142
TAFRWL
TAF
KRWL 041142Z 0412/0512 29005KT P6SM SCT100
     FM041700 27010KT P6SM FEW200
     FM042000 27013G20KT P6SM SCT200
     FM050100 26010KT P6SM SCT250=



000
FTUS45 KCYS 041142
TAFLAR
TAF
KLAR 041142Z 0412/0512 31006KT P6SM SCT050 BKN080
     FM041700 30010KT P6SM FEW200
     FM050500 24009KT P6SM SCT200=



000
FTUS45 KCYS 041142
TAFLAR
TAF
KLAR 041142Z 0412/0512 31006KT P6SM SCT050 BKN080
     FM041700 30010KT P6SM FEW200
     FM050500 24009KT P6SM SCT200=



000
FTUS45 KCYS 041142
TAFCYS
TAF
KCYS 041142Z 0412/0512 32007KT P6SM SCT050 BKN120
     FM041600 31011KT P6SM FEW200
     FM050500 27011KT P6SM SCT250=



000
FTUS45 KCYS 041142
TAFRWL
TAF
KRWL 041142Z 0412/0512 29005KT P6SM SCT100
     FM041700 27010KT P6SM FEW200
     FM042000 27013G20KT P6SM SCT200
     FM050100 26010KT P6SM SCT250=



000
FTUS45 KCYS 041142
TAFLAR
TAF
KLAR 041142Z 0412/0512 31006KT P6SM SCT050 BKN080
     FM041700 30010KT P6SM FEW200
     FM050500 24009KT P6SM SCT200=



000
FTUS45 KCYS 041142
TAFRWL
TAF
KRWL 041142Z 0412/0512 29005KT P6SM SCT100
     FM041700 27010KT P6SM FEW200
     FM042000 27013G20KT P6SM SCT200
     FM050100 26010KT P6SM SCT250=



000
FTUS45 KCYS 041142
TAFCYS
TAF
KCYS 041142Z 0412/0512 32007KT P6SM SCT050 BKN120
     FM041600 31011KT P6SM FEW200
     FM050500 27011KT P6SM SCT250=



000
FTUS45 KCYS 040850 AAA
TAFCYS
TAF AMD
KCYS 040850Z 0409/0506 35009KT 3SM -SN BKN035 OVC080
     FM041100 32009KT P6SM BKN050 OVC080
     FM041800 31011KT P6SM SCT050=



000
FTUS45 KCYS 040850 AAA
TAFCYS
TAF AMD
KCYS 040850Z 0409/0506 35009KT 3SM -SN BKN035 OVC080
     FM041100 32009KT P6SM BKN050 OVC080
     FM041800 31011KT P6SM SCT050=



000
FTUS45 KCYS 040850 AAA
TAFCYS
TAF AMD
KCYS 040850Z 0409/0506 35009KT 3SM -SN BKN035 OVC080
     FM041100 32009KT P6SM BKN050 OVC080
     FM041800 31011KT P6SM SCT050=



000
FTUS45 KCYS 040850 AAA
TAFCYS
TAF AMD
KCYS 040850Z 0409/0506 35009KT 3SM -SN BKN035 OVC080
     FM041100 32009KT P6SM BKN050 OVC080
     FM041800 31011KT P6SM SCT050=



000
FTUS45 KCYS 040520
TAFRWL
TAF
KRWL 040520Z 0406/0506 02009KT P6SM VCSH BKN025
     FM041000 VRB03KT P6SM SCT040
     FM041700 27010KT P6SM SCT030
     FM042000 27015G22KT P6SM BKN030=



000
FTUS45 KCYS 040520
TAFCYS
TAF
KCYS 040520Z 0406/0506 02010KT 2SM -SN SCT010 OVC020
     FM040800 35006KT P6SM VCSH SCT015 BKN025
     FM041200 31009KT P6SM SCT025 SCT090
     FM041800 31011KT P6SM SCT050=



000
FTUS45 KCYS 040520
TAFLAR
TAF
KLAR 040520Z 0406/0506 34007KT P6SM VCSH SCT015 BKN025
     FM041100 31006KT P6SM FEW022
     FM041700 30010KT P6SM SKC=



000
FTUS45 KCYS 040520
TAFCYS
TAF
KCYS 040520Z 0406/0506 02010KT 2SM -SN SCT010 OVC020
     FM040800 35006KT P6SM VCSH SCT015 BKN025
     FM041200 31009KT P6SM SCT025 SCT090
     FM041800 31011KT P6SM SCT050=



000
FTUS45 KCYS 040520
TAFLAR
TAF
KLAR 040520Z 0406/0506 34007KT P6SM VCSH SCT015 BKN025
     FM041100 31006KT P6SM FEW022
     FM041700 30010KT P6SM SKC=



000
FTUS45 KCYS 040520
TAFRWL
TAF
KRWL 040520Z 0406/0506 02009KT P6SM VCSH BKN025
     FM041000 VRB03KT P6SM SCT040
     FM041700 27010KT P6SM SCT030
     FM042000 27015G22KT P6SM BKN030=



000
FTUS45 KCYS 040520
TAFRWL
TAF
KRWL 040520Z 0406/0506 02009KT P6SM VCSH BKN025
     FM041000 VRB03KT P6SM SCT040
     FM041700 27010KT P6SM SCT030
     FM042000 27015G22KT P6SM BKN030=



000
FTUS45 KCYS 040520
TAFLAR
TAF
KLAR 040520Z 0406/0506 34007KT P6SM VCSH SCT015 BKN025
     FM041100 31006KT P6SM FEW022
     FM041700 30010KT P6SM SKC=



000
FTUS45 KCYS 040520
TAFLAR
TAF
KLAR 040520Z 0406/0506 34007KT P6SM VCSH SCT015 BKN025
     FM041100 31006KT P6SM FEW022
     FM041700 30010KT P6SM SKC=



000
FTUS45 KCYS 040520
TAFCYS
TAF
KCYS 040520Z 0406/0506 02010KT 2SM -SN SCT010 OVC020
     FM040800 35006KT P6SM VCSH SCT015 BKN025
     FM041200 31009KT P6SM SCT025 SCT090
     FM041800 31011KT P6SM SCT050=



000
FTUS45 KCYS 040520
TAFRWL
TAF
KRWL 040520Z 0406/0506 02009KT P6SM VCSH BKN025
     FM041000 VRB03KT P6SM SCT040
     FM041700 27010KT P6SM SCT030
     FM042000 27015G22KT P6SM BKN030=



000
FTUS45 KCYS 040520
TAFCYS
TAF
KCYS 040520Z 0406/0506 02010KT 2SM -SN SCT010 OVC020
     FM040800 35006KT P6SM VCSH SCT015 BKN025
     FM041200 31009KT P6SM SCT025 SCT090
     FM041800 31011KT P6SM SCT050=



000
FTUS45 KCYS 040154 AAA
TAFLAR
TAF AMD
KLAR 040154Z 0402/0424 34007KT P6SM VCSH SCT012 BKN020
     FM041300 31006KT P6SM FEW022=



000
FTUS45 KCYS 040154 AAA
TAFLAR
TAF AMD
KLAR 040154Z 0402/0424 34007KT P6SM VCSH SCT012 BKN020
     FM041300 31006KT P6SM FEW022=



000
FTUS45 KCYS 040154 AAB
TAFCYS
TAF AMD
KCYS 040154Z 0402/0424 02010KT 2SM -SN OVC020
     FM040700 35006KT P6SM VCSH SCT015 BKN025
     FM041200 31009KT P6SM SCT025=



000
FTUS45 KCYS 040154 AAB
TAFCYS
TAF AMD
KCYS 040154Z 0402/0424 02010KT 2SM -SN OVC020
     FM040700 35006KT P6SM VCSH SCT015 BKN025
     FM041200 31009KT P6SM SCT025=



000
FTUS45 KCYS 040154 AAB
TAFCYS
TAF AMD
KCYS 040154Z 0402/0424 02010KT 2SM -SN OVC020
     FM040700 35006KT P6SM VCSH SCT015 BKN025
     FM041200 31009KT P6SM SCT025=



000
FTUS45 KCYS 040154 AAB
TAFCYS
TAF AMD
KCYS 040154Z 0402/0424 02010KT 2SM -SN OVC020
     FM040700 35006KT P6SM VCSH SCT015 BKN025
     FM041200 31009KT P6SM SCT025=



000
FTUS45 KCYS 040154 AAA
TAFLAR
TAF AMD
KLAR 040154Z 0402/0424 34007KT P6SM VCSH SCT012 BKN020
     FM041300 31006KT P6SM FEW022=



000
FTUS45 KCYS 032329
TAFLAR
TAF
KLAR 032329Z 0400/0424 16015KT 2SM -SN OVC014
     FM040500 34007KT P6SM VCSH SCT012 BKN020
     FM041300 31006KT P6SM FEW022=



000
FTUS45 KCYS 032329
TAFCYS
TAF
KCYS 032329Z 0400/0424 02010KT 1 1/2SM -SN OVC015
     FM040700 35006KT P6SM VCSH SCT015 BKN025
     FM041200 31009KT P6SM SCT025=



000
FTUS45 KCYS 032329
TAFRWL
TAF
KRWL 032329Z 0400/0424 36011KT P6SM VCSH SCT015 BKN035
     FM040800 VRB03KT P6SM SCT040
     FM041700 27010KT P6SM SCT030=



000
FTUS45 KCYS 032329
TAFRWL
TAF
KRWL 032329Z 0400/0424 36011KT P6SM VCSH SCT015 BKN035
     FM040800 VRB03KT P6SM SCT040
     FM041700 27010KT P6SM SCT030=



000
FTUS45 KCYS 032329
TAFLAR
TAF
KLAR 032329Z 0400/0424 16015KT 2SM -SN OVC014
     FM040500 34007KT P6SM VCSH SCT012 BKN020
     FM041300 31006KT P6SM FEW022=



000
FTUS45 KCYS 032329
TAFCYS
TAF
KCYS 032329Z 0400/0424 02010KT 1 1/2SM -SN OVC015
     FM040700 35006KT P6SM VCSH SCT015 BKN025
     FM041200 31009KT P6SM SCT025=



000
FTUS45 KCYS 032013 AAB
TAFLAR
TAF AMD
KLAR 032013Z 0320/0418 16015KT P6SM VCSH SCT016
     FM032200 16015KT 2SM -SN OVC014
     FM040500 VRB05KT P6SM VCSH SCT012 BKN020
     FM041300 31006KT P6SM FEW022=



000
FTUS45 KCYS 032013 AAB
TAFLAR
TAF AMD
KLAR 032013Z 0320/0418 16015KT P6SM VCSH SCT016
     FM032200 16015KT 2SM -SN OVC014
     FM040500 VRB05KT P6SM VCSH SCT012 BKN020
     FM041300 31006KT P6SM FEW022=



000
FTUS45 KCYS 032012 AAC
TAFCYS
TAF AMD
KCYS 032012Z 0320/0418 02008KT P6SM BKN018
     FM040000 02010KT 1SM -SN OVC007
     FM040700 35006KT P6SM VCSH SCT015 BKN025
     FM041200 31009KT P6SM SCT025=



000
FTUS45 KCYS 032012 AAC
TAFCYS
TAF AMD
KCYS 032012Z 0320/0418 02008KT P6SM BKN018
     FM040000 02010KT 1SM -SN OVC007
     FM040700 35006KT P6SM VCSH SCT015 BKN025
     FM041200 31009KT P6SM SCT025=



000
FTUS45 KCYS 032012 AAC
TAFCYS
TAF AMD
KCYS 032012Z 0320/0418 02008KT P6SM BKN018
     FM040000 02010KT 1SM -SN OVC007
     FM040700 35006KT P6SM VCSH SCT015 BKN025
     FM041200 31009KT P6SM SCT025=



000
FTUS45 KCYS 032012 AAC
TAFCYS
TAF AMD
KCYS 032012Z 0320/0418 02008KT P6SM BKN018
     FM040000 02010KT 1SM -SN OVC007
     FM040700 35006KT P6SM VCSH SCT015 BKN025
     FM041200 31009KT P6SM SCT025=



000
FTUS45 KCYS 031939 AAB
TAFCYS
TAF AMD
KCYS 031939Z 0320/0418 02011KT 3SM -SHSN BKN018
     FM040000 02010KT 1SM -SN OVC007
     FM040700 35006KT P6SM VCSH SCT015 BKN025
     FM041200 31009KT P6SM SCT025=



000
FTUS45 KCYS 031912 AAA
TAFRWL
TAF AMD
KRWL 031912Z 0319/0418 04008KT 3/4SM -SN BKN016
     FM032000 03010KT 1SM -SN SCT007 BKN015
     FM040200 01006KT P6SM VCSH SCT015 BKN035
     FM040800 VRB03KT P6SM SCT040=



000
FTUS45 KCYS 031912 AAA
TAFRWL
TAF AMD
KRWL 031912Z 0319/0418 04008KT 3/4SM -SN BKN016
     FM032000 03010KT 1SM -SN SCT007 BKN015
     FM040200 01006KT P6SM VCSH SCT015 BKN035
     FM040800 VRB03KT P6SM SCT040=



000
FTUS45 KCYS 031911 AAA
TAFLAR
TAF AMD
KLAR 031911Z 0319/0418 16012KT P6SM BKN016
     FM032100 16011KT 1SM -SN OVC014
     FM040500 VRB05KT P6SM VCSH SCT012 BKN020
     FM041300 31006KT P6SM FEW022=



000
FTUS45 KCYS 031849 AAA
TAFCYS
TAF AMD
KCYS 031849Z 0319/0418 01011KT 2SM -SHSN SCT015 BKN035
     FM040000 02010KT 1SM -SN OVC007
     FM040700 35006KT P6SM VCSH SCT015 BKN025
     FM041200 31009KT P6SM SCT025=



000
FTUS45 KCYS 031849 AAA
TAFCYS
TAF AMD
KCYS 031849Z 0319/0418 01011KT 2SM -SHSN SCT015 BKN035
     FM040000 02010KT 1SM -SN OVC007
     FM040700 35006KT P6SM VCSH SCT015 BKN025
     FM041200 31009KT P6SM SCT025=



000
FTUS45 KCYS 031849 AAA
TAFCYS
TAF AMD
KCYS 031849Z 0319/0418 01011KT 2SM -SHSN SCT015 BKN035
     FM040000 02010KT 1SM -SN OVC007
     FM040700 35006KT P6SM VCSH SCT015 BKN025
     FM041200 31009KT P6SM SCT025=



000
FTUS45 KCYS 031849 AAA
TAFCYS
TAF AMD
KCYS 031849Z 0319/0418 01011KT 2SM -SHSN SCT015 BKN035
     FM040000 02010KT 1SM -SN OVC007
     FM040700 35006KT P6SM VCSH SCT015 BKN025
     FM041200 31009KT P6SM SCT025=



000
FTUS45 KCYS 031802 CCB
TAFRWL
TAF COR
KRWL 031802Z 0318/0418 04008KT 4SM -SHSN SCT015 OVC030
     FM032000 03010KT 1SM -SN SCT007 BKN015
     FM040200 01006KT P6SM VCSH SCT015 BKN035
     FM040800 VRB03KT P6SM SCT040=



000
FTUS45 KCYS 031802 CCB
TAFRWL
TAF COR
KRWL 031802Z 0318/0418 04008KT 4SM -SHSN SCT015 OVC030
     FM032000 03010KT 1SM -SN SCT007 BKN015
     FM040200 01006KT P6SM VCSH SCT015 BKN035
     FM040800 VRB03KT P6SM SCT040=



000
FTUS45 KCYS 031748 CCA
TAFRWL
TAF COR
KRWL 031748Z 0318/0418 04008KT 2SM -SHSN SCT015 OVC030
     FM032000 03010KT 1SM -SN SCT007 BKN015
     FM040200 01006KT P6SM VCSH SCT015 BKN035
     FM040800 VRB03KT P6SM SCT040=



000
FTUS45 KCYS 031748 CCA
TAFRWL
TAF COR
KRWL 031748Z 0318/0418 04008KT 2SM -SHSN SCT015 OVC030
     FM032000 03010KT 1SM -SN SCT007 BKN015
     FM040200 01006KT P6SM VCSH SCT015 BKN035
     FM040800 VRB03KT P6SM SCT040=



000
FTUS45 KCYS 031748 CCA
TAFRWL
TAF COR
KRWL 031748Z 0318/0418 04008KT 2SM -SHSN SCT015 OVC030
     FM032000 03010KT 1SM -SN SCT007 BKN015
     FM040200 01006KT P6SM VCSH SCT015 BKN035
     FM040800 VRB03KT P6SM SCT040=



000
FTUS45 KCYS 031736
TAFRWL
TAF
KRWL 031736Z 0318/0418 04008KT P6SM OVC018
     FM032000 03010KT 1SM -SN SCT007 BKN015
     FM040200 01006KT P6SM VCSH SCT015 BKN035
     FM040800 VRB03KT P6SM SCT040=



000
FTUS45 KCYS 031736
TAFCYS
TAF
KCYS 031736Z 0318/0418 01016KT P6SM BKN014
     FM040000 02010KT 1SM -SN OVC007
     FM040700 35006KT P6SM VCSH SCT015 BKN025
     FM041200 31009KT P6SM SCT025=



000
FTUS45 KCYS 031736
TAFLAR
TAF
KLAR 031736Z 0318/0418 VRB03KT P6SM FEW012
     FM032100 05008KT 1SM -SN OVC012
     FM040500 VRB05KT P6SM VCSH SCT012 BKN020
     FM041300 31006KT P6SM FEW022=



000
FTUS45 KCYS 031736
TAFCYS
TAF
KCYS 031736Z 0318/0418 01016KT P6SM BKN014
     FM040000 02010KT 1SM -SN OVC007
     FM040700 35006KT P6SM VCSH SCT015 BKN025
     FM041200 31009KT P6SM SCT025=



000
FTUS45 KCYS 031736
TAFLAR
TAF
KLAR 031736Z 0318/0418 VRB03KT P6SM FEW012
     FM032100 05008KT 1SM -SN OVC012
     FM040500 VRB05KT P6SM VCSH SCT012 BKN020
     FM041300 31006KT P6SM FEW022=



000
FTUS45 KCYS 031736
TAFRWL
TAF
KRWL 031736Z 0318/0418 04008KT P6SM OVC018
     FM032000 03010KT 1SM -SN SCT007 BKN015
     FM040200 01006KT P6SM VCSH SCT015 BKN035
     FM040800 VRB03KT P6SM SCT040=



000
FTUS45 KCYS 031736
TAFRWL
TAF
KRWL 031736Z 0318/0418 04008KT P6SM OVC018
     FM032000 03010KT 1SM -SN SCT007 BKN015
     FM040200 01006KT P6SM VCSH SCT015 BKN035
     FM040800 VRB03KT P6SM SCT040=



000
FTUS45 KCYS 031736
TAFCYS
TAF
KCYS 031736Z 0318/0418 01016KT P6SM BKN014
     FM040000 02010KT 1SM -SN OVC007
     FM040700 35006KT P6SM VCSH SCT015 BKN025
     FM041200 31009KT P6SM SCT025=



000
FTUS45 KCYS 031736
TAFLAR
TAF
KLAR 031736Z 0318/0418 VRB03KT P6SM FEW012
     FM032100 05008KT 1SM -SN OVC012
     FM040500 VRB05KT P6SM VCSH SCT012 BKN020
     FM041300 31006KT P6SM FEW022=



000
FTUS45 KCYS 031736
TAFLAR
TAF
KLAR 031736Z 0318/0418 VRB03KT P6SM FEW012
     FM032100 05008KT 1SM -SN OVC012
     FM040500 VRB05KT P6SM VCSH SCT012 BKN020
     FM041300 31006KT P6SM FEW022=



000
FTUS45 KCYS 031736
TAFRWL
TAF
KRWL 031736Z 0318/0418 04008KT P6SM OVC018
     FM032000 03010KT 1SM -SN SCT007 BKN015
     FM040200 01006KT P6SM VCSH SCT015 BKN035
     FM040800 VRB03KT P6SM SCT040=



000
FTUS45 KCYS 031736
TAFCYS
TAF
KCYS 031736Z 0318/0418 01016KT P6SM BKN014
     FM040000 02010KT 1SM -SN OVC007
     FM040700 35006KT P6SM VCSH SCT015 BKN025
     FM041200 31009KT P6SM SCT025=



000
FTUS45 KCYS 031558 AAC
TAFLAR
TAF AMD
KLAR 031558Z 0316/0412 VRB05KT P6SM FEW012
     FM032200 05014KT 1SM -SN OVC007
     FM040500 04007KT P6SM VCSH SCT012 BKN020=



000
FTUS45 KCYS 031558 AAC
TAFLAR
TAF AMD
KLAR 031558Z 0316/0412 VRB05KT P6SM FEW012
     FM032200 05014KT 1SM -SN OVC007
     FM040500 04007KT P6SM VCSH SCT012 BKN020=



000
FTUS45 KCYS 031509 AAB
TAFLAR
TAF AMD
KLAR 031509Z 0315/0412 02005KT P6SM BKN023
     FM032000 05014KT 1SM -SN OVC007
     FM040500 04007KT P6SM VCSH SCT012 BKN020=



000
FTUS45 KCYS 031509 AAB
TAFLAR
TAF AMD
KLAR 031509Z 0315/0412 02005KT P6SM BKN023
     FM032000 05014KT 1SM -SN OVC007
     FM040500 04007KT P6SM VCSH SCT012 BKN020=



000
FTUS45 KCYS 031509 AAB
TAFLAR
TAF AMD
KLAR 031509Z 0315/0412 02005KT P6SM BKN023
     FM032000 05014KT 1SM -SN OVC007
     FM040500 04007KT P6SM VCSH SCT012 BKN020=



000
FTUS45 KCYS 031509 AAB
TAFLAR
TAF AMD
KLAR 031509Z 0315/0412 02005KT P6SM BKN023
     FM032000 05014KT 1SM -SN OVC007
     FM040500 04007KT P6SM VCSH SCT012 BKN020=



000
FTUS45 KCYS 031508 AAB
TAFCYS
TAF AMD
KCYS 031508Z 0315/0412 36020G30KT 3SM -SN BKN014
     FM031700 02014KT P6SM SCT020
     FM040000 05010KT 1SM -SN OVC007
     FM040700 01006KT P6SM VCSH SCT015 BKN025=



000
FTUS45 KCYS 031508 AAB
TAFCYS
TAF AMD
KCYS 031508Z 0315/0412 36020G30KT 3SM -SN BKN014
     FM031700 02014KT P6SM SCT020
     FM040000 05010KT 1SM -SN OVC007
     FM040700 01006KT P6SM VCSH SCT015 BKN025=



000
FTUS45 KCYS 031508 AAB
TAFCYS
TAF AMD
KCYS 031508Z 0315/0412 36020G30KT 3SM -SN BKN014
     FM031700 02014KT P6SM SCT020
     FM040000 05010KT 1SM -SN OVC007
     FM040700 01006KT P6SM VCSH SCT015 BKN025=



000
FTUS45 KCYS 031508 AAB
TAFCYS
TAF AMD
KCYS 031508Z 0315/0412 36020G30KT 3SM -SN BKN014
     FM031700 02014KT P6SM SCT020
     FM040000 05010KT 1SM -SN OVC007
     FM040700 01006KT P6SM VCSH SCT015 BKN025=



000
FTUS45 KCYS 031413 AAA
TAFLAR
TAF AMD
KLAR 031413Z 0314/0412 02006KT P6SM -SN BKN018
     FM032000 05014KT 1SM -SN OVC007
     FM040500 04007KT P6SM VCSH SCT012 BKN020=



000
FTUS45 KCYS 031413 AAA
TAFLAR
TAF AMD
KLAR 031413Z 0314/0412 02006KT P6SM -SN BKN018
     FM032000 05014KT 1SM -SN OVC007
     FM040500 04007KT P6SM VCSH SCT012 BKN020=



000
FTUS45 KCYS 031412 AAA
TAFRWL
TAF AMD
KRWL 031412Z 0314/0412 06005KT 5SM -SN OVC027
     FM031700 03005KT 5SM -SHSN SCT012 BKN018
     FM032000 01010KT 1SM -SN SCT007 BKN015
     FM040300 02006KT P6SM VCSH SCT015 BKN025
     FM040800 VRB04KT P6SM SCT040 BKN060=



000
FTUS45 KCYS 031412 AAA
TAFRWL
TAF AMD
KRWL 031412Z 0314/0412 06005KT 5SM -SN OVC027
     FM031700 03005KT 5SM -SHSN SCT012 BKN018
     FM032000 01010KT 1SM -SN SCT007 BKN015
     FM040300 02006KT P6SM VCSH SCT015 BKN025
     FM040800 VRB04KT P6SM SCT040 BKN060=



000
FTUS45 KCYS 031133
TAFLAR
TAF
KLAR 031133Z 0312/0412 33015KT P6SM -SN SCT018 BKN035
      TEMPO 0312/0316 3SM -SN BKN018
     FM032000 05014KT 1SM -SN OVC007
     FM040500 04007KT P6SM VCSH SCT012 BKN020=



000
FTUS45 KCYS 031133
TAFCYS
TAF
KCYS 031133Z 0312/0412 36014G24KT 3SM -SN SCT017 BKN030
      TEMPO 0312/0315 3/4SM -SN BKN017
     FM031700 05009KT 3SM -SHSN BR OVC007
     FM040000 05010KT 1SM -SN OVC007
     FM040700 01006KT P6SM VCSH SCT015 BKN025=



000
FTUS45 KCYS 031133
TAFCYS
TAF
KCYS 031133Z 0312/0412 36014G24KT 3SM -SN SCT017 BKN030
      TEMPO 0312/0315 3/4SM -SN BKN017
     FM031700 05009KT 3SM -SHSN BR OVC007
     FM040000 05010KT 1SM -SN OVC007
     FM040700 01006KT P6SM VCSH SCT015 BKN025=



000
FTUS45 KCYS 031133
TAFLAR
TAF
KLAR 031133Z 0312/0412 33015KT P6SM -SN SCT018 BKN035
      TEMPO 0312/0316 3SM -SN BKN018
     FM032000 05014KT 1SM -SN OVC007
     FM040500 04007KT P6SM VCSH SCT012 BKN020=



000
FTUS45 KCYS 031133
TAFRWL
TAF
KRWL 031133Z 0312/0412 04008KT 2SM -SN SCT007 BKN015
     FM031600 03007KT 5SM -SHSN SCT012 BKN018
     FM032000 01010KT 1SM -SN SCT007 BKN015
     FM040300 02006KT P6SM VCSH SCT015 BKN025
     FM040800 VRB04KT P6SM SCT040 BKN060=



000
FTUS45 KCYS 031133
TAFRWL
TAF
KRWL 031133Z 0312/0412 04008KT 2SM -SN SCT007 BKN015
     FM031600 03007KT 5SM -SHSN SCT012 BKN018
     FM032000 01010KT 1SM -SN SCT007 BKN015
     FM040300 02006KT P6SM VCSH SCT015 BKN025
     FM040800 VRB04KT P6SM SCT040 BKN060=



000
FTUS45 KCYS 031133
TAFCYS
TAF
KCYS 031133Z 0312/0412 36014G24KT 3SM -SN SCT017 BKN030
      TEMPO 0312/0315 3/4SM -SN BKN017
     FM031700 05009KT 3SM -SHSN BR OVC007
     FM040000 05010KT 1SM -SN OVC007
     FM040700 01006KT P6SM VCSH SCT015 BKN025=



000
FTUS45 KCYS 031133
TAFCYS
TAF
KCYS 031133Z 0312/0412 36014G24KT 3SM -SN SCT017 BKN030
      TEMPO 0312/0315 3/4SM -SN BKN017
     FM031700 05009KT 3SM -SHSN BR OVC007
     FM040000 05010KT 1SM -SN OVC007
     FM040700 01006KT P6SM VCSH SCT015 BKN025=



000
FTUS45 KCYS 031133
TAFRWL
TAF
KRWL 031133Z 0312/0412 04008KT 2SM -SN SCT007 BKN015
     FM031600 03007KT 5SM -SHSN SCT012 BKN018
     FM032000 01010KT 1SM -SN SCT007 BKN015
     FM040300 02006KT P6SM VCSH SCT015 BKN025
     FM040800 VRB04KT P6SM SCT040 BKN060=



000
FTUS45 KCYS 031133
TAFLAR
TAF
KLAR 031133Z 0312/0412 33015KT P6SM -SN SCT018 BKN035
      TEMPO 0312/0316 3SM -SN BKN018
     FM032000 05014KT 1SM -SN OVC007
     FM040500 04007KT P6SM VCSH SCT012 BKN020=



000
FTUS45 KCYS 031133
TAFLAR
TAF
KLAR 031133Z 0312/0412 33015KT P6SM -SN SCT018 BKN035
      TEMPO 0312/0316 3SM -SN BKN018
     FM032000 05014KT 1SM -SN OVC007
     FM040500 04007KT P6SM VCSH SCT012 BKN020=



000
FTUS45 KCYS 031133
TAFRWL
TAF
KRWL 031133Z 0312/0412 04008KT 2SM -SN SCT007 BKN015
     FM031600 03007KT 5SM -SHSN SCT012 BKN018
     FM032000 01010KT 1SM -SN SCT007 BKN015
     FM040300 02006KT P6SM VCSH SCT015 BKN025
     FM040800 VRB04KT P6SM SCT040 BKN060=



000
FTUS45 KCYS 031029 AAA
TAFLAR
TAF AMD
KLAR 031029Z 0310/0406 33015KT 3/4SM -SN VV008
     FM031300 30015G22KT 2SM -SN BR OVC012=



000
FTUS45 KCYS 031029 AAA
TAFLAR
TAF AMD
KLAR 031029Z 0310/0406 33015KT 3/4SM -SN VV008
     FM031300 30015G22KT 2SM -SN BR OVC012=



000
FTUS45 KCYS 030538
TAFCYS
TAF
KCYS 030538Z 0306/0406 25020G35KT P6SM OVC050
     FM030900 35014G23KT 4SM -SN BR OVC010
     FM031100 02012KT 2SM -SN OVC007
     FM032100 05010KT 1SM -SN OVC005=



000
FTUS45 KCYS 030538
TAFRWL
TAF
KRWL 030538Z 0306/0406 31015KT 1SM -SN BR OVC008
     FM031000 02013KT 2SM -SN BR OVC007
     FM031200 04008KT P6SM VCSH SCT010 BKN030=



000
FTUS45 KCYS 030538
TAFCYS
TAF
KCYS 030538Z 0306/0406 25020G35KT P6SM OVC050
     FM030900 35014G23KT 4SM -SN BR OVC010
     FM031100 02012KT 2SM -SN OVC007
     FM032100 05010KT 1SM -SN OVC005=



000
FTUS45 KCYS 030538
TAFLAR
TAF
KLAR 030538Z 0306/0406 25020KT P6SM VCSH SCT030 BKN060
     FM030900 31013G19KT 4SM BR VCSH SCT007 OVC015
     FM031300 30015G22KT 2SM -SN BR OVC012=



000
FTUS45 KCYS 030538
TAFCYS
TAF
KCYS 030538Z 0306/0406 25020G35KT P6SM OVC050
     FM030900 35014G23KT 4SM -SN BR OVC010
     FM031100 02012KT 2SM -SN OVC007
     FM032100 05010KT 1SM -SN OVC005=



000
FTUS45 KCYS 030538
TAFLAR
TAF
KLAR 030538Z 0306/0406 25020KT P6SM VCSH SCT030 BKN060
     FM030900 31013G19KT 4SM BR VCSH SCT007 OVC015
     FM031300 30015G22KT 2SM -SN BR OVC012=



000
FTUS45 KCYS 030538
TAFLAR
TAF
KLAR 030538Z 0306/0406 25020KT P6SM VCSH SCT030 BKN060
     FM030900 31013G19KT 4SM BR VCSH SCT007 OVC015
     FM031300 30015G22KT 2SM -SN BR OVC012=



000
FTUS45 KCYS 030538
TAFRWL
TAF
KRWL 030538Z 0306/0406 31015KT 1SM -SN BR OVC008
     FM031000 02013KT 2SM -SN BR OVC007
     FM031200 04008KT P6SM VCSH SCT010 BKN030=



000
FTUS45 KCYS 030538
TAFRWL
TAF
KRWL 030538Z 0306/0406 31015KT 1SM -SN BR OVC008
     FM031000 02013KT 2SM -SN BR OVC007
     FM031200 04008KT P6SM VCSH SCT010 BKN030=



000
FTUS45 KCYS 030538
TAFLAR
TAF
KLAR 030538Z 0306/0406 25020KT P6SM VCSH SCT030 BKN060
     FM030900 31013G19KT 4SM BR VCSH SCT007 OVC015
     FM031300 30015G22KT 2SM -SN BR OVC012=



000
FTUS45 KCYS 030538
TAFRWL
TAF
KRWL 030538Z 0306/0406 31015KT 1SM -SN BR OVC008
     FM031000 02013KT 2SM -SN BR OVC007
     FM031200 04008KT P6SM VCSH SCT010 BKN030=



000
FTUS45 KCYS 030538
TAFCYS
TAF
KCYS 030538Z 0306/0406 25020G35KT P6SM OVC050
     FM030900 35014G23KT 4SM -SN BR OVC010
     FM031100 02012KT 2SM -SN OVC007
     FM032100 05010KT 1SM -SN OVC005=



000
FTUS45 KCYS 030513 AAC
TAFCYS
TAF AMD
KCYS 030513Z 0305/0324 26020G35KT P6SM OVC050
     FM030800 35014G21KT 4SM -SN BR OVC010
     FM031700 02012KT 2SM -SN OVC007=



000
FTUS45 KCYS 030513 AAC
TAFCYS
TAF AMD
KCYS 030513Z 0305/0324 26020G35KT P6SM OVC050
     FM030800 35014G21KT 4SM -SN BR OVC010
     FM031700 02012KT 2SM -SN OVC007=



000
FTUS45 KCYS 030353 AAB
TAFRWL
TAF AMD
KRWL 030353Z 0304/0324 VRB04KT 3SM -SN BR BKN009 OVC015
     FM030500 28017G25KT 1SM -SN BR OVC008
     FM031000 02013KT 1SM -SN BR OVC007=



000
FTUS45 KCYS 030353 AAB
TAFRWL
TAF AMD
KRWL 030353Z 0304/0324 VRB04KT 3SM -SN BR BKN009 OVC015
     FM030500 28017G25KT 1SM -SN BR OVC008
     FM031000 02013KT 1SM -SN BR OVC007=



000
FTUS45 KCYS 030353 AAB
TAFRWL
TAF AMD
KRWL 030353Z 0304/0324 VRB04KT 3SM -SN BR BKN009 OVC015
     FM030500 28017G25KT 1SM -SN BR OVC008
     FM031000 02013KT 1SM -SN BR OVC007=



000
FTUS45 KCYS 030310 AAB
TAFLAR
TAF AMD
KLAR 030310Z 0303/0324 22014KT P6SM VCSH SCT002 BKN060
     FM030900 31013G19KT 4SM -SN BR SCT007 OVC015
     FM031800 30015G22KT 1SM -SN BR OVC012=



000
FTUS45 KCYS 030310 AAB
TAFLAR
TAF AMD
KLAR 030310Z 0303/0324 22014KT P6SM VCSH SCT002 BKN060
     FM030900 31013G19KT 4SM -SN BR SCT007 OVC015
     FM031800 30015G22KT 1SM -SN BR OVC012=



000
FTUS45 KCYS 030310 AAB
TAFLAR
TAF AMD
KLAR 030310Z 0303/0324 22014KT P6SM VCSH SCT002 BKN060
     FM030900 31013G19KT 4SM -SN BR SCT007 OVC015
     FM031800 30015G22KT 1SM -SN BR OVC012=



000
FTUS45 KCYS 030310 AAB
TAFLAR
TAF AMD
KLAR 030310Z 0303/0324 22014KT P6SM VCSH SCT002 BKN060
     FM030900 31013G19KT 4SM -SN BR SCT007 OVC015
     FM031800 30015G22KT 1SM -SN BR OVC012=



000
FTUS45 KCYS 030226 AAA
TAFRWL
TAF AMD
KRWL 030226Z 0302/0324 VRB04KT 3SM -SN BR BKN009 OVC015
     FM030400 28017G25KT 1SM -SN BR OVC008
     FM031000 02013KT 1SM -SN BR OVC007=



000
FTUS45 KCYS 030226 AAA
TAFRWL
TAF AMD
KRWL 030226Z 0302/0324 VRB04KT 3SM -SN BR BKN009 OVC015
     FM030400 28017G25KT 1SM -SN BR OVC008
     FM031000 02013KT 1SM -SN BR OVC007=



000
FTUS45 KCYS 030226 AAA
TAFRWL
TAF AMD
KRWL 030226Z 0302/0324 VRB04KT 3SM -SN BR BKN009 OVC015
     FM030400 28017G25KT 1SM -SN BR OVC008
     FM031000 02013KT 1SM -SN BR OVC007=



000
FTUS45 KCYS 030226 AAA
TAFRWL
TAF AMD
KRWL 030226Z 0302/0324 VRB04KT 3SM -SN BR BKN009 OVC015
     FM030400 28017G25KT 1SM -SN BR OVC008
     FM031000 02013KT 1SM -SN BR OVC007=



000
FTUS45 KCYS 030213 AAA
TAFLAR
TAF AMD
KLAR 030213Z 0302/0324 22014KT P6SM VCSH SCT090
      TEMPO 0302/0304 2SM -SN BKN030
     FM030900 31013G19KT 4SM -SN BR SCT007 OVC015
     FM031800 30015G22KT 1SM -SN BR OVC012=



000
FTUS45 KCYS 030213 AAA
TAFLAR
TAF AMD
KLAR 030213Z 0302/0324 22014KT P6SM VCSH SCT090
      TEMPO 0302/0304 2SM -SN BKN030
     FM030900 31013G19KT 4SM -SN BR SCT007 OVC015
     FM031800 30015G22KT 1SM -SN BR OVC012=



000
FTUS45 KCYS 022335 CCA
TAFRWL
TAF COR
KRWL 022335Z 0300/0324 VRB04KT 1SM -SN BR BKN010 OVC015
     FM030200 28017G25KT 1SM -SN BR OVC008
     FM031000 02013KT 1SM -SN BR OVC007=



000
FTUS45 KCYS 022335 CCA
TAFRWL
TAF COR
KRWL 022335Z 0300/0324 VRB04KT 1SM -SN BR BKN010 OVC015
     FM030200 28017G25KT 1SM -SN BR OVC008
     FM031000 02013KT 1SM -SN BR OVC007=



000
FTUS45 KCYS 022321
TAFLAR
TAF
KLAR 022321Z 0300/0324 22014KT P6SM SCT090
     FM030900 31013G19KT 4SM -SN BR SCT007 OVC015
     FM031800 30015G22KT 1SM -SN BR OVC012=



000
FTUS45 KCYS 022321
TAFCYS
TAF
KCYS 022321Z 0300/0324 16006KT P6SM SCT250
     FM030500 26012KT P6SM OVC050
     FM030800 35014G21KT 4SM -SN BR OVC010
     FM031700 02012KT 2SM -SN OVC007=



000
FTUS45 KCYS 022321
TAFLAR
TAF
KLAR 022321Z 0300/0324 22014KT P6SM SCT090
     FM030900 31013G19KT 4SM -SN BR SCT007 OVC015
     FM031800 30015G22KT 1SM -SN BR OVC012=



000
FTUS45 KCYS 022321
TAFCYS
TAF
KCYS 022321Z 0300/0324 16006KT P6SM SCT250
     FM030500 26012KT P6SM OVC050
     FM030800 35014G21KT 4SM -SN BR OVC010
     FM031700 02012KT 2SM -SN OVC007=



000
FTUS45 KCYS 022321
TAFRWL
TAF
KRWL 022321Z 0300/0324 VRB04KT 3SM -SN BR BKN020 OVC028
     FM030200 28017G25KT 1SM -SN BR OVC008
     FM031000 02013KT 1SM -SN BR OVC007=



000
FTUS45 KCYS 022321
TAFRWL
TAF
KRWL 022321Z 0300/0324 VRB04KT 3SM -SN BR BKN020 OVC028
     FM030200 28017G25KT 1SM -SN BR OVC008
     FM031000 02013KT 1SM -SN BR OVC007=



000
FTUS45 KCYS 022133 AAC
TAFRWL
TAF AMD
KRWL 022133Z 0222/0318 VRB04KT 3/4SM -SN BR SCT007 OVC015
     FM022300 VRB04KT 1SM -SN BR OVC007
     FM030200 28015G25KT 1SM -SN BR OVC008=



000
FTUS45 KCYS 022133 AAC
TAFRWL
TAF AMD
KRWL 022133Z 0222/0318 VRB04KT 3/4SM -SN BR SCT007 OVC015
     FM022300 VRB04KT 1SM -SN BR OVC007
     FM030200 28015G25KT 1SM -SN BR OVC008=



000
FTUS45 KCYS 022102 AAB
TAFRWL
TAF AMD
KRWL 022102Z 0221/0318 VRB04KT 4SM -SN BR BKN007 OVC019
     FM022300 VRB04KT 1SM -SN BR OVC007
     FM030200 28015G25KT 1SM -SN BR OVC008=



000
FTUS45 KCYS 022102 AAB
TAFRWL
TAF AMD
KRWL 022102Z 0221/0318 VRB04KT 4SM -SN BR BKN007 OVC019
     FM022300 VRB04KT 1SM -SN BR OVC007
     FM030200 28015G25KT 1SM -SN BR OVC008=



000
FTUS45 KCYS 022102 AAB
TAFRWL
TAF AMD
KRWL 022102Z 0221/0318 VRB04KT 4SM -SN BR BKN007 OVC019
     FM022300 VRB04KT 1SM -SN BR OVC007
     FM030200 28015G25KT 1SM -SN BR OVC008=



000
FTUS45 KCYS 022005 AAA
TAFRWL
TAF AMD
KRWL 022005Z 0220/0318 00000KT 1SM -SN OVC019
     FM022100 24010KT 1SM -SN BR OVC022
     FM030200 28015G25KT 1SM -SN BR OVC008=



000
FTUS45 KCYS 022005 AAA
TAFRWL
TAF AMD
KRWL 022005Z 0220/0318 00000KT 1SM -SN OVC019
     FM022100 24010KT 1SM -SN BR OVC022
     FM030200 28015G25KT 1SM -SN BR OVC008=



000
FTUS45 KCYS 021818 CCB
TAFCYS
TAF COR
KCYS 021818Z 0218/0318 20007KT 5SM BR OVC007
     FM021830 20006KT P6SM SCT008
     FM030500 26012KT P6SM OVC050
     FM030800 35014G21KT P6SM OVC010=



000
FTUS45 KCYS 021818 CCB
TAFCYS
TAF COR
KCYS 021818Z 0218/0318 20007KT 5SM BR OVC007
     FM021830 20006KT P6SM SCT008
     FM030500 26012KT P6SM OVC050
     FM030800 35014G21KT P6SM OVC010=



000
FTUS45 KCYS 021818 CCB
TAFCYS
TAF COR
KCYS 021818Z 0218/0318 20007KT 5SM BR OVC007
     FM021830 20006KT P6SM SCT008
     FM030500 26012KT P6SM OVC050
     FM030800 35014G21KT P6SM OVC010=



000
FTUS45 KCYS 021818 CCB
TAFCYS
TAF COR
KCYS 021818Z 0218/0318 20007KT 5SM BR OVC007
     FM021830 20006KT P6SM SCT008
     FM030500 26012KT P6SM OVC050
     FM030800 35014G21KT P6SM OVC010=



000
FTUS45 KCYS 021759 CCA
TAFLAR
TAF COR
KLAR 021759Z 0218/0318 22006KT P6SM VCSH FEW007 BKN060
     FM031000 33013KT 3SM -SN BR BKN007 OVC015=



000
FTUS45 KCYS 021759 CCA
TAFLAR
TAF COR
KLAR 021759Z 0218/0318 22006KT P6SM VCSH FEW007 BKN060
     FM031000 33013KT 3SM -SN BR BKN007 OVC015=



000
FTUS45 KCYS 021759 CCA
TAFCYS
TAF COR
KCYS 021759Z 0218/0318 20007KT 5SM BR OVC007
     FM022100 20008KT P6SM OVC011
     FM030500 26012KT P6SM OVC050
     FM030800 35014G21KT P6SM OVC010=



000
FTUS45 KCYS 021759 CCA
TAFLAR
TAF COR
KLAR 021759Z 0218/0318 22006KT P6SM VCSH FEW007 BKN060
     FM031000 33013KT 3SM -SN BR BKN007 OVC015=



000
FTUS45 KCYS 021759 CCA
TAFCYS
TAF COR
KCYS 021759Z 0218/0318 20007KT 5SM BR OVC007
     FM022100 20008KT P6SM OVC011
     FM030500 26012KT P6SM OVC050
     FM030800 35014G21KT P6SM OVC010=



000
FTUS45 KCYS 021759 CCA
TAFCYS
TAF COR
KCYS 021759Z 0218/0318 20007KT 5SM BR OVC007
     FM022100 20008KT P6SM OVC011
     FM030500 26012KT P6SM OVC050
     FM030800 35014G21KT P6SM OVC010=



000
FTUS45 KCYS 021759 CCA
TAFLAR
TAF COR
KLAR 021759Z 0218/0318 22006KT P6SM VCSH FEW007 BKN060
     FM031000 33013KT 3SM -SN BR BKN007 OVC015=



000
FTUS45 KCYS 021759 CCA
TAFCYS
TAF COR
KCYS 021759Z 0218/0318 20007KT 5SM BR OVC007
     FM022100 20008KT P6SM OVC011
     FM030500 26012KT P6SM OVC050
     FM030800 35014G21KT P6SM OVC010=



000
FTUS45 KCYS 021724
TAFCYS
TAF
KCYS 021724Z 0218/0318 20007KT 5SM BR OVC005
     FM022100 20008KT P6SM OVC009
     FM030500 26012KT P6SM OVC050
     FM030800 35014G21KT P6SM OVC010=



000
FTUS45 KCYS 021724
TAFRWL
TAF
KRWL 021724Z 0218/0318 00000KT 1/2SM SN OVC010
     FM022100 24013KT 1SM -SN BR OVC010
     FM030200 28015G25KT 1SM -SN BR OVC008=



000
FTUS45 KCYS 021724
TAFLAR
TAF
KLAR 021724Z 0218/0318 22006KT 4SM -SN BR FEW007 BKN040
     FM021900 23008KT P6SM OVC050
     FM031000 33013KT 3SM -SN BR BKN007 OVC015=



000
FTUS45 KCYS 021724
TAFRWL
TAF
KRWL 021724Z 0218/0318 00000KT 1/2SM SN OVC010
     FM022100 24013KT 1SM -SN BR OVC010
     FM030200 28015G25KT 1SM -SN BR OVC008=



000
FTUS45 KCYS 021724
TAFCYS
TAF
KCYS 021724Z 0218/0318 20007KT 5SM BR OVC005
     FM022100 20008KT P6SM OVC009
     FM030500 26012KT P6SM OVC050
     FM030800 35014G21KT P6SM OVC010=



000
FTUS45 KCYS 021724
TAFLAR
TAF
KLAR 021724Z 0218/0318 22006KT 4SM -SN BR FEW007 BKN040
     FM021900 23008KT P6SM OVC050
     FM031000 33013KT 3SM -SN BR BKN007 OVC015=



000
FTUS45 KCYS 021724
TAFRWL
TAF
KRWL 021724Z 0218/0318 00000KT 1/2SM SN OVC010
     FM022100 24013KT 1SM -SN BR OVC010
     FM030200 28015G25KT 1SM -SN BR OVC008=



000
FTUS45 KCYS 021724
TAFLAR
TAF
KLAR 021724Z 0218/0318 22006KT 4SM -SN BR FEW007 BKN040
     FM021900 23008KT P6SM OVC050
     FM031000 33013KT 3SM -SN BR BKN007 OVC015=



000
FTUS45 KCYS 021724
TAFCYS
TAF
KCYS 021724Z 0218/0318 20007KT 5SM BR OVC005
     FM022100 20008KT P6SM OVC009
     FM030500 26012KT P6SM OVC050
     FM030800 35014G21KT P6SM OVC010=



000
FTUS45 KCYS 021724
TAFRWL
TAF
KRWL 021724Z 0218/0318 00000KT 1/2SM SN OVC010
     FM022100 24013KT 1SM -SN BR OVC010
     FM030200 28015G25KT 1SM -SN BR OVC008=



000
FTUS45 KCYS 021724
TAFLAR
TAF
KLAR 021724Z 0218/0318 22006KT 4SM -SN BR FEW007 BKN040
     FM021900 23008KT P6SM OVC050
     FM031000 33013KT 3SM -SN BR BKN007 OVC015=



000
FTUS45 KCYS 021724
TAFCYS
TAF
KCYS 021724Z 0218/0318 20007KT 5SM BR OVC005
     FM022100 20008KT P6SM OVC009
     FM030500 26012KT P6SM OVC050
     FM030800 35014G21KT P6SM OVC010=



000
FTUS45 KCYS 021628 AAE
TAFCYS
TAF AMD
KCYS 021628Z 0216/0312 20008KT 4SM BR OVC004
     FM022200 20010KT P6SM OVC010
     FM030100 28010KT 5SM -SN BKN025 OVC050
     FM030500 36014G21KT 2SM -SN BLSN BKN007 OVC015=



000
FTUS45 KCYS 021628 AAE
TAFCYS
TAF AMD
KCYS 021628Z 0216/0312 20008KT 4SM BR OVC004
     FM022200 20010KT P6SM OVC010
     FM030100 28010KT 5SM -SN BKN025 OVC050
     FM030500 36014G21KT 2SM -SN BLSN BKN007 OVC015=



000
FTUS45 KCYS 021525 AAD
TAFRWL
TAF AMD
KRWL 021525Z 0215/0312 00000KT 1 1/2SM -SN BR BKN035 OVC050
      TEMPO 0215/0218 3/4SM -SN OVC025
     FM021800 21012KT 2SM -SN BR BKN005 OVC010
     FM022100 24013KT 1SM -SN BR OVC004=



000
FTUS45 KCYS 021525 AAD
TAFRWL
TAF AMD
KRWL 021525Z 0215/0312 00000KT 1 1/2SM -SN BR BKN035 OVC050
      TEMPO 0215/0218 3/4SM -SN OVC025
     FM021800 21012KT 2SM -SN BR BKN005 OVC010
     FM022100 24013KT 1SM -SN BR OVC004=



000
FTUS45 KCYS 021456 AAC
TAFRWL
TAF AMD
KRWL 021456Z 0215/0312 00000KT 1 1/2SM -SN BR BKN035 OVC050
     FM021800 21012KT 2SM -SN BR BKN005 OVC010
     FM022100 24013KT 1SM -SN BR OVC004=



000
FTUS45 KCYS 021456 AAC
TAFRWL
TAF AMD
KRWL 021456Z 0215/0312 00000KT 1 1/2SM -SN BR BKN035 OVC050
     FM021800 21012KT 2SM -SN BR BKN005 OVC010
     FM022100 24013KT 1SM -SN BR OVC004=



000
FTUS45 KCYS 021456 AAC
TAFRWL
TAF AMD
KRWL 021456Z 0215/0312 00000KT 1 1/2SM -SN BR BKN035 OVC050
     FM021800 21012KT 2SM -SN BR BKN005 OVC010
     FM022100 24013KT 1SM -SN BR OVC004=



000
FTUS45 KCYS 021456 AAC
TAFRWL
TAF AMD
KRWL 021456Z 0215/0312 00000KT 1 1/2SM -SN BR BKN035 OVC050
     FM021800 21012KT 2SM -SN BR BKN005 OVC010
     FM022100 24013KT 1SM -SN BR OVC004=



000
FTUS45 KCYS 021455 AAB
TAFLAR
TAF AMD
KLAR 021455Z 0215/0312 22007KT 2SM -SN OVC020
      TEMPO 0215/0217 1SM -SN BR OVC020
     FM021800 22013KT P6SM VCSH SCT025 BKN050 OVC100
     FM030100 34010KT 2SM -SN BKN007 OVC015=



000
FTUS45 KCYS 021455 AAB
TAFLAR
TAF AMD
KLAR 021455Z 0215/0312 22007KT 2SM -SN OVC020
      TEMPO 0215/0217 1SM -SN BR OVC020
     FM021800 22013KT P6SM VCSH SCT025 BKN050 OVC100
     FM030100 34010KT 2SM -SN BKN007 OVC015=



000
FTUS45 KCYS 021455 AAB
TAFLAR
TAF AMD
KLAR 021455Z 0215/0312 22007KT 2SM -SN OVC020
      TEMPO 0215/0217 1SM -SN BR OVC020
     FM021800 22013KT P6SM VCSH SCT025 BKN050 OVC100
     FM030100 34010KT 2SM -SN BKN007 OVC015=



000
FTUS45 KCYS 021455 AAB
TAFLAR
TAF AMD
KLAR 021455Z 0215/0312 22007KT 2SM -SN OVC020
      TEMPO 0215/0217 1SM -SN BR OVC020
     FM021800 22013KT P6SM VCSH SCT025 BKN050 OVC100
     FM030100 34010KT 2SM -SN BKN007 OVC015=



000
FTUS45 KCYS 021454 AAC
TAFCYS
TAF AMD
KCYS 021454Z 0215/0312 20012KT 2SM BR OVC004
     FM021800 21012KT P6SM BKN050 OVC100
     FM030100 28010KT 5SM -SN BKN025 OVC050
     FM030500 36014G21KT 2SM -SN BLSN BKN007 OVC015=



000
FTUS45 KCYS 021454 AAC
TAFCYS
TAF AMD
KCYS 021454Z 0215/0312 20012KT 2SM BR OVC004
     FM021800 21012KT P6SM BKN050 OVC100
     FM030100 28010KT 5SM -SN BKN025 OVC050
     FM030500 36014G21KT 2SM -SN BLSN BKN007 OVC015=



000
FTUS45 KCYS 021400 CCA
TAFRWL
TAF COR
KRWL 021400Z 0214/0312 21008KT 3SM -SN BR BKN025 OVC050
      TEMPO 0214/0216 1SM -SN OVC015
     FM021600 21012KT 2SM -SN BR BKN005 OVC010
     FM022100 24013KT 1SM -SN BR OVC004=



000
FTUS45 KCYS 021400 CCA
TAFRWL
TAF COR
KRWL 021400Z 0214/0312 21008KT 3SM -SN BR BKN025 OVC050
      TEMPO 0214/0216 1SM -SN OVC015
     FM021600 21012KT 2SM -SN BR BKN005 OVC010
     FM022100 24013KT 1SM -SN BR OVC004=



000
FTUS45 KCYS 021359 AAB
TAFRWL
TAF AMD
KRWL 021359Z 0214/0312 21008KT P6SM VCSH BKN025 OVC050
      TEMPO 0214/0216 1SM -SN OVC015
     FM021600 21012KT 2SM -SN BR BKN005 OVC010
     FM022100 24013KT 1SM -SN BR OVC004=



000
FTUS45 KCYS 021359 AAB
TAFRWL
TAF AMD
KRWL 021359Z 0214/0312 21008KT P6SM VCSH BKN025 OVC050
      TEMPO 0214/0216 1SM -SN OVC015
     FM021600 21012KT 2SM -SN BR BKN005 OVC010
     FM022100 24013KT 1SM -SN BR OVC004=



000
FTUS45 KCYS 021300 AAB
TAFCYS
TAF AMD
KCYS 021300Z 0213/0312 20012KT 5SM BR BKN008 OVC015
      TEMPO 0213/0216 3SM BR OVC004
     FM021800 21012KT P6SM BKN050 OVC100
     FM030100 28010KT 5SM -SN BKN025 OVC050
     FM030500 36014G21KT 2SM -SN BLSN BKN007 OVC015=



000
FTUS45 KCYS 021255 AAA
TAFRWL
TAF AMD
KRWL 021255Z 0213/0312 21008KT P6SM VCSH BKN025 OVC050
      TEMPO 0213/0216 2SM -SN OVC015
     FM021600 21012KT 2SM -SN BR BKN005 OVC010
     FM022100 24013KT 1SM -SN BR OVC004=



000
FTUS45 KCYS 021255 AAA
TAFRWL
TAF AMD
KRWL 021255Z 0213/0312 21008KT P6SM VCSH BKN025 OVC050
      TEMPO 0213/0216 2SM -SN OVC015
     FM021600 21012KT 2SM -SN BR BKN005 OVC010
     FM022100 24013KT 1SM -SN BR OVC004=



000
FTUS45 KCYS 021254 AAA
TAFLAR
TAF AMD
KLAR 021254Z 0213/0312 16012KT P6SM -SN BKN035 OVC070
      TEMPO 0213/0216 3SM -SN BR OVC020
     FM021800 22013KT P6SM VCSH SCT025 BKN050 OVC100
     FM030100 34010KT 2SM -SN BKN007 OVC015=



000
FTUS45 KCYS 021254 AAA
TAFLAR
TAF AMD
KLAR 021254Z 0213/0312 16012KT P6SM -SN BKN035 OVC070
      TEMPO 0213/0216 3SM -SN BR OVC020
     FM021800 22013KT P6SM VCSH SCT025 BKN050 OVC100
     FM030100 34010KT 2SM -SN BKN007 OVC015=



000
FTUS45 KCYS 021142
TAFCYS
TAF
KCYS 021142Z 0212/0312 19015KT 5SM BR SCT008 BKN015 OVC050
     FM021800 21012KT P6SM BKN050 OVC100
     FM030100 28010KT 5SM -SN BKN025 OVC050
     FM030500 36014G21KT 2SM -SN BLSN BKN007 OVC015=



000
FTUS45 KCYS 021142
TAFCYS
TAF
KCYS 021142Z 0212/0312 19015KT 5SM BR SCT008 BKN015 OVC050
     FM021800 21012KT P6SM BKN050 OVC100
     FM030100 28010KT 5SM -SN BKN025 OVC050
     FM030500 36014G21KT 2SM -SN BLSN BKN007 OVC015=



000
FTUS45 KCYS 021142
TAFRWL
TAF
KRWL 021142Z 0212/0312 21008KT P6SM VCSH SCT025 OVC070
      TEMPO 0212/0216 2SM -SN BKN007 OVC015
     FM021600 21012KT 2SM -SN BR BKN005 OVC010
     FM022100 24013KT 1SM -SN BR OVC004=



000
FTUS45 KCYS 021142
TAFRWL
TAF
KRWL 021142Z 0212/0312 21008KT P6SM VCSH SCT025 OVC070
      TEMPO 0212/0216 2SM -SN BKN007 OVC015
     FM021600 21012KT 2SM -SN BR BKN005 OVC010
     FM022100 24013KT 1SM -SN BR OVC004=



000
FTUS45 KCYS 021142
TAFLAR
TAF
KLAR 021142Z 0212/0312 17015KT P6SM VCSH SCT025 OVC070
      TEMPO 0212/0216 2SM -SN BR BKN015 OVC025
     FM021800 22013KT P6SM VCSH SCT025 BKN050 OVC100
     FM030100 34010KT 2SM -SN BKN007 OVC015=



000
FTUS45 KCYS 021142
TAFLAR
TAF
KLAR 021142Z 0212/0312 17015KT P6SM VCSH SCT025 OVC070
      TEMPO 0212/0216 2SM -SN BR BKN015 OVC025
     FM021800 22013KT P6SM VCSH SCT025 BKN050 OVC100
     FM030100 34010KT 2SM -SN BKN007 OVC015=



000
FTUS45 KCYS 021020 AAB
TAFCYS
TAF AMD
KCYS 021020Z 0210/0306 21014KT 6SM BR SCT015 OVC050
      TEMPO 0210/0212 2SM -SN BR BKN015
     FM021200 21012KT 5SM -SHSN BKN015 BKN025 OVC050
     FM021800 20008KT 3SM BR VCSH OVC005=



000
FTUS45 KCYS 021020 AAB
TAFCYS
TAF AMD
KCYS 021020Z 0210/0306 21014KT 6SM BR SCT015 OVC050
      TEMPO 0210/0212 2SM -SN BR BKN015
     FM021200 21012KT 5SM -SHSN BKN015 BKN025 OVC050
     FM021800 20008KT 3SM BR VCSH OVC005=



000
FTUS45 KCYS 021020 AAB
TAFCYS
TAF AMD
KCYS 021020Z 0210/0306 21014KT 6SM BR SCT015 OVC050
      TEMPO 0210/0212 2SM -SN BR BKN015
     FM021200 21012KT 5SM -SHSN BKN015 BKN025 OVC050
     FM021800 20008KT 3SM BR VCSH OVC005=



000
FTUS45 KCYS 020903 AAA
TAFCYS
TAF AMD
KCYS 020903Z 0209/0306 21014KT 6SM BR SCT007 BKN035 OVC060
      TEMPO 0209/0212 21014G21KT 3SM -SN BR BKN007
     FM021200 21012KT 4SM -SHSN BKN007 BKN025 OVC050
     FM021800 20008KT 3SM BR VCSH OVC005=



000
FTUS45 KCYS 020903 AAA
TAFCYS
TAF AMD
KCYS 020903Z 0209/0306 21014KT 6SM BR SCT007 BKN035 OVC060
      TEMPO 0209/0212 21014G21KT 3SM -SN BR BKN007
     FM021200 21012KT 4SM -SHSN BKN007 BKN025 OVC050
     FM021800 20008KT 3SM BR VCSH OVC005=



000
FTUS45 KCYS 020903 AAA
TAFCYS
TAF AMD
KCYS 020903Z 0209/0306 21014KT 6SM BR SCT007 BKN035 OVC060
      TEMPO 0209/0212 21014G21KT 3SM -SN BR BKN007
     FM021200 21012KT 4SM -SHSN BKN007 BKN025 OVC050
     FM021800 20008KT 3SM BR VCSH OVC005=



000
FTUS45 KCYS 020825 CCA
TAFCYS
TAF COR
KCYS 020825Z 0208/0306 21012KT P6SM BKN035 OVC060
      TEMPO 0208/0211 20012G20KT 3SM -SN
     FM021200 21012KT 4SM -SHSN SCT007 BKN025 OVC050
     FM021800 20008KT 3SM BR VCSH OVC005=



000
FTUS45 KCYS 020825 CCA
TAFCYS
TAF COR
KCYS 020825Z 0208/0306 21012KT P6SM BKN035 OVC060
      TEMPO 0208/0211 20012G20KT 3SM -SN
     FM021200 21012KT 4SM -SHSN SCT007 BKN025 OVC050
     FM021800 20008KT 3SM BR VCSH OVC005=



000
FTUS45 KCYS 020825 CCA
TAFCYS
TAF COR
KCYS 020825Z 0208/0306 21012KT P6SM BKN035 OVC060
      TEMPO 0208/0211 20012G20KT 3SM -SN
     FM021200 21012KT 4SM -SHSN SCT007 BKN025 OVC050
     FM021800 20008KT 3SM BR VCSH OVC005=



000
FTUS45 KCYS 020520
TAFRWL
TAF
KRWL 020520Z 0206/0306 VRB05KT P6SM SCT030
     FM021100 21008KT 4SM BR VCSH BKN010 OVC030
     FM021500 17008KT 1SM -SN BR BKN007 OVC010=



000
FTUS45 KCYS 020520
TAFRWL
TAF
KRWL 020520Z 0206/0306 VRB05KT P6SM SCT030
     FM021100 21008KT 4SM BR VCSH BKN010 OVC030
     FM021500 17008KT 1SM -SN BR BKN007 OVC010=



000
FTUS45 KCYS 020520
TAFLAR
TAF
KLAR 020520Z 0206/0306 16012KT P6SM BKN050
     FM021500 15010KT 5SM BR OVC025
     FM021800 20015KT 4SM -SHSN SCT007 OVC025=



000
FTUS45 KCYS 020520
TAFLAR
TAF
KLAR 020520Z 0206/0306 16012KT P6SM BKN050
     FM021500 15010KT 5SM BR OVC025
     FM021800 20015KT 4SM -SHSN SCT007 OVC025=



000
FTUS45 KCYS 020520
TAFCYS
TAF
KCYS 020520Z 0206/0306 21008KT P6SM SCT007 OVC020
      TEMPO 0208/0211 3SM BR BKN007
     FM021100 19005KT 4SM BR OVC007
     FM021200 21012KT 2SM -SHSN OVC007
     FM021800 20008KT 3SM BR VCSH OVC005=



000
FTUS45 KCYS 020520
TAFLAR
TAF
KLAR 020520Z 0206/0306 16012KT P6SM BKN050
     FM021500 15010KT 5SM BR OVC025
     FM021800 20015KT 4SM -SHSN SCT007 OVC025=



000
FTUS45 KCYS 020520
TAFCYS
TAF
KCYS 020520Z 0206/0306 21008KT P6SM SCT007 OVC020
      TEMPO 0208/0211 3SM BR BKN007
     FM021100 19005KT 4SM BR OVC007
     FM021200 21012KT 2SM -SHSN OVC007
     FM021800 20008KT 3SM BR VCSH OVC005=



000
FTUS45 KCYS 020520
TAFCYS
TAF
KCYS 020520Z 0206/0306 21008KT P6SM SCT007 OVC020
      TEMPO 0208/0211 3SM BR BKN007
     FM021100 19005KT 4SM BR OVC007
     FM021200 21012KT 2SM -SHSN OVC007
     FM021800 20008KT 3SM BR VCSH OVC005=



000
FTUS45 KCYS 020520
TAFRWL
TAF
KRWL 020520Z 0206/0306 VRB05KT P6SM SCT030
     FM021100 21008KT 4SM BR VCSH BKN010 OVC030
     FM021500 17008KT 1SM -SN BR BKN007 OVC010=



000
FTUS45 KCYS 020330 AAA
TAFLAR
TAF AMD
KLAR 020330Z 0204/0224 16012KT P6SM BKN050
     FM020600 15010KT 5SM BR OVC025
     FM020800 20015KT 4SM -SHSN SCT007 OVC025=



000
FTUS45 KCYS 020330 AAA
TAFLAR
TAF AMD
KLAR 020330Z 0204/0224 16012KT P6SM BKN050
     FM020600 15010KT 5SM BR OVC025
     FM020800 20015KT 4SM -SHSN SCT007 OVC025=



000
FTUS45 KCYS 020330 AAA
TAFCYS
TAF AMD
KCYS 020330Z 0204/0224 21008KT P6SM OVC020
     FM020600 19005KT 4SM BR OVC007
     FM020700 21012KT 2SM -SHSN OVC007
     FM021100 20008KT 3SM BR VCSH OVC005=



000
FTUS45 KCYS 020330 AAA
TAFCYS
TAF AMD
KCYS 020330Z 0204/0224 21008KT P6SM OVC020
     FM020600 19005KT 4SM BR OVC007
     FM020700 21012KT 2SM -SHSN OVC007
     FM021100 20008KT 3SM BR VCSH OVC005=



000
FTUS45 KCYS 012320
TAFLAR
TAF
KLAR 012320Z 0200/0224 VRB03KT P6SM BKN050
     FM020100 15010KT 5SM BR OVC025
     FM020800 20015KT 4SM -SHSN SCT007 OVC025=



000
FTUS45 KCYS 012320
TAFCYS
TAF
KCYS 012320Z 0200/0224 VRB05KT P6SM OVC020
     FM020200 19005KT 4SM BR OVC007
     FM020600 21012KT 2SM -SHSN OVC007
     FM021100 20008KT 3SM BR VCSH OVC005=



000
FTUS45 KCYS 012320
TAFRWL
TAF
KRWL 012320Z 0200/0224 VRB05KT P6SM SCT030
     FM021100 21008KT 4SM BR VCSH SCT010 OVC030
     FM021800 17008KT 1SM -SN BR BKN007 OVC010=



000
FTUS45 KCYS 012320
TAFLAR
TAF
KLAR 012320Z 0200/0224 VRB03KT P6SM BKN050
     FM020100 15010KT 5SM BR OVC025
     FM020800 20015KT 4SM -SHSN SCT007 OVC025=



000
FTUS45 KCYS 012320
TAFLAR
TAF
KLAR 012320Z 0200/0224 VRB03KT P6SM BKN050
     FM020100 15010KT 5SM BR OVC025
     FM020800 20015KT 4SM -SHSN SCT007 OVC025=



000
FTUS45 KCYS 012320
TAFCYS
TAF
KCYS 012320Z 0200/0224 VRB05KT P6SM OVC020
     FM020200 19005KT 4SM BR OVC007
     FM020600 21012KT 2SM -SHSN OVC007
     FM021100 20008KT 3SM BR VCSH OVC005=



000
FTUS45 KCYS 012320
TAFCYS
TAF
KCYS 012320Z 0200/0224 VRB05KT P6SM OVC020
     FM020200 19005KT 4SM BR OVC007
     FM020600 21012KT 2SM -SHSN OVC007
     FM021100 20008KT 3SM BR VCSH OVC005=



000
FTUS45 KCYS 012320
TAFRWL
TAF
KRWL 012320Z 0200/0224 VRB05KT P6SM SCT030
     FM021100 21008KT 4SM BR VCSH SCT010 OVC030
     FM021800 17008KT 1SM -SN BR BKN007 OVC010=



000
FTUS45 KCYS 012320
TAFCYS
TAF
KCYS 012320Z 0200/0224 VRB05KT P6SM OVC020
     FM020200 19005KT 4SM BR OVC007
     FM020600 21012KT 2SM -SHSN OVC007
     FM021100 20008KT 3SM BR VCSH OVC005=



000
FTUS45 KCYS 012320
TAFLAR
TAF
KLAR 012320Z 0200/0224 VRB03KT P6SM BKN050
     FM020100 15010KT 5SM BR OVC025
     FM020800 20015KT 4SM -SHSN SCT007 OVC025=



000
FTUS45 KCYS 012320
TAFRWL
TAF
KRWL 012320Z 0200/0224 VRB05KT P6SM SCT030
     FM021100 21008KT 4SM BR VCSH SCT010 OVC030
     FM021800 17008KT 1SM -SN BR BKN007 OVC010=



000
FTUS45 KCYS 012320
TAFRWL
TAF
KRWL 012320Z 0200/0224 VRB05KT P6SM SCT030
     FM021100 21008KT 4SM BR VCSH SCT010 OVC030
     FM021800 17008KT 1SM -SN BR BKN007 OVC010=



000
FTUS45 KCYS 012014 AAA
TAFRWL
TAF AMD
KRWL 012014Z 0120/0218 VRB03KT P6SM SCT015
     FM012300 VRB05KT P6SM SCT020 OVC030
     FM020900 21008KT 4SM BR VCSH SCT007 OVC015=



000
FTUS45 KCYS 011843 AAA
TAFCYS
TAF AMD
KCYS 011843Z 0119/0218 VRB05KT P6SM BKN015 OVC025
     FM020000 19005KT 4SM BR OVC007
     FM020400 21012KT 2SM -SHSN OVC007=



000
FTUS45 KCYS 011843 AAA
TAFCYS
TAF AMD
KCYS 011843Z 0119/0218 VRB05KT P6SM BKN015 OVC025
     FM020000 19005KT 4SM BR OVC007
     FM020400 21012KT 2SM -SHSN OVC007=



000
FTUS45 KCYS 011843 AAA
TAFCYS
TAF AMD
KCYS 011843Z 0119/0218 VRB05KT P6SM BKN015 OVC025
     FM020000 19005KT 4SM BR OVC007
     FM020400 21012KT 2SM -SHSN OVC007=



000
FTUS45 KCYS 011800 CCA
TAFCYS
TAF COR
KCYS 011800Z 0118/0218 VRB05KT 4SM BR BKN015
     FM012100 15008KT P6SM BKN015 OVC025
     FM020000 19005KT 4SM BR OVC007
     FM020400 21012KT 2SM -SHSN OVC007=



000
FTUS45 KCYS 011743
TAFRWL
TAF
KRWL 011743Z 0118/0218 VRB03KT P6SM OVC012
      TEMPO 0119/0123 SCT015
     FM012300 VRB05KT P6SM SCT020 OVC030
     FM020900 21008KT 4SM BR VCSH SCT007 OVC015=



000
FTUS45 KCYS 011743
TAFCYS
TAF
KCYS 011743Z 0118/0218 VRB05KT 4SM BR BKN009
     FM012100 15008KT P6SM BKN015 OVC025
     FM020000 19005KT 4SM BR OVC007
     FM020400 21012KT 2SM -SHSN OVC007=



000
FTUS45 KCYS 011743
TAFCYS
TAF
KCYS 011743Z 0118/0218 VRB05KT 4SM BR BKN009
     FM012100 15008KT P6SM BKN015 OVC025
     FM020000 19005KT 4SM BR OVC007
     FM020400 21012KT 2SM -SHSN OVC007=



000
FTUS45 KCYS 011743
TAFLAR
TAF
KLAR 011743Z 0118/0218 VRB05KT P6SM BKN010
     FM020100 15010KT 5SM BR BKN007 OVC010
     FM020700 20015KT 4SM -SHSN SCT007 OVC025=



000
FTUS45 KCYS 011743
TAFRWL
TAF
KRWL 011743Z 0118/0218 VRB03KT P6SM OVC012
      TEMPO 0119/0123 SCT015
     FM012300 VRB05KT P6SM SCT020 OVC030
     FM020900 21008KT 4SM BR VCSH SCT007 OVC015=



000
FTUS45 KCYS 011743
TAFRWL
TAF
KRWL 011743Z 0118/0218 VRB03KT P6SM OVC012
      TEMPO 0119/0123 SCT015
     FM012300 VRB05KT P6SM SCT020 OVC030
     FM020900 21008KT 4SM BR VCSH SCT007 OVC015=



000
FTUS45 KCYS 011743
TAFCYS
TAF
KCYS 011743Z 0118/0218 VRB05KT 4SM BR BKN009
     FM012100 15008KT P6SM BKN015 OVC025
     FM020000 19005KT 4SM BR OVC007
     FM020400 21012KT 2SM -SHSN OVC007=



000
FTUS45 KCYS 011743
TAFLAR
TAF
KLAR 011743Z 0118/0218 VRB05KT P6SM BKN010
     FM020100 15010KT 5SM BR BKN007 OVC010
     FM020700 20015KT 4SM -SHSN SCT007 OVC025=



000
FTUS45 KCYS 011743
TAFCYS
TAF
KCYS 011743Z 0118/0218 VRB05KT 4SM BR BKN009
     FM012100 15008KT P6SM BKN015 OVC025
     FM020000 19005KT 4SM BR OVC007
     FM020400 21012KT 2SM -SHSN OVC007=



000
FTUS45 KCYS 011743
TAFRWL
TAF
KRWL 011743Z 0118/0218 VRB03KT P6SM OVC012
      TEMPO 0119/0123 SCT015
     FM012300 VRB05KT P6SM SCT020 OVC030
     FM020900 21008KT 4SM BR VCSH SCT007 OVC015=



000
FTUS45 KCYS 011743
TAFLAR
TAF
KLAR 011743Z 0118/0218 VRB05KT P6SM BKN010
     FM020100 15010KT 5SM BR BKN007 OVC010
     FM020700 20015KT 4SM -SHSN SCT007 OVC025=



000
FTUS45 KCYS 011743
TAFLAR
TAF
KLAR 011743Z 0118/0218 VRB05KT P6SM BKN010
     FM020100 15010KT 5SM BR BKN007 OVC010
     FM020700 20015KT 4SM -SHSN SCT007 OVC025=



    US Dept of Commerce
    National Oceanic and Atmospheric Administration
    National Weather Service
    1325 East West Highway
    Silver Spring, MD 20910
    Page Author: NWS Internet Services Team
Disclaimer
Information Quality
Credits
Glossary
Privacy Policy
Freedom of Information Act (FOIA)
About Us
Career Opportunities